Time;durP1;ratioP1;P1;durP2;ratioP2;P2;SDS_P1;SDS_P2;PMS_P1;PMS_P2;Temp;Humidity;BMP_temperature;BMP_pressure;BME280_temperature;BME280_humidity;BME280_pressure;Samples;Min_cycle;Max_cycle;Signal;HPM_P1;HPM_P2
2022/01/06 00:01:01;;;;;;;5.85;1.45;;;1.50;91.50;;;;;;5031007;28;20443;-83
2022/01/06 00:03:27;;;;;;;4.13;1.52;;;1.50;91.80;;;;;;5040680;28;20087;-83
2022/01/06 00:05:54;;;;;;;5.53;1.38;;;1.50;91.80;;;;;;5023278;28;20025;-82
2022/01/06 00:08:20;;;;;;;2.90;1.13;;;1.50;91.80;;;;;;5040215;28;20359;-82
2022/01/06 00:10:48;;;;;;;7.82;1.45;;;1.50;91.80;;;;;;5040222;28;20079;-82
2022/01/06 00:13:17;;;;;;;4.00;1.30;;;1.50;91.80;;;;;;5040532;28;20087;-82
2022/01/06 00:25:57;;;;;;;5.93;1.23;;;1.50;91.70;;;;;;5052054;28;20041;-82
2022/01/06 00:28:23;;;;;;;4.00;1.40;;;1.60;91.80;;;;;;5051122;28;20120;-82
2022/01/06 00:30:49;;;;;;;9.35;1.98;;;1.60;92.10;;;;;;5046663;28;20021;-81
2022/01/06 00:33:16;;;;;;;7.55;1.35;;;1.50;92.10;;;;;;5050902;28;20006;-82
2022/01/06 00:35:41;;;;;;;8.07;1.38;;;1.60;91.80;;;;;;5053495;28;20075;-83
2022/01/06 00:38:08;;;;;;;5.15;1.30;;;1.50;92.00;;;;;;5033876;28;20038;-82
2022/01/06 00:40:35;;;;;;;3.97;1.10;;;1.60;92.20;;;;;;5052386;28;20013;-82
2022/01/06 00:43:03;;;;;;;9.07;1.23;;;1.50;92.30;;;;;;5030582;28;20028;-82
2022/01/06 00:45:29;;;;;;;4.95;1.27;;;1.50;92.30;;;;;;5032480;28;20026;-82
2022/01/06 00:47:55;;;;;;;5.82;1.40;;;1.50;92.30;;;;;;5038876;28;20018;-82
2022/01/06 00:50:31;;;;;;;4.15;1.67;;;1.50;92.40;;;;;;5040243;28;20057;-82
2022/01/06 00:52:57;;;;;;;7.55;1.25;;;1.50;92.60;;;;;;5039906;28;20032;-82
2022/01/06 00:55:23;;;;;;;2.78;1.17;;;1.50;93.00;;;;;;5039851;28;20429;-83
2022/01/06 00:57:49;;;;;;;6.85;1.30;;;1.50;93.00;;;;;;5039042;28;20025;-83
2022/01/06 01:00:15;;;;;;;3.17;1.02;;;1.50;93.30;;;;;;5041711;28;20071;-83
2022/01/06 01:02:43;;;;;;;5.03;1.30;;;1.40;93.80;;;;;;5042061;28;20021;-83
2022/01/06 01:05:09;;;;;;;10.70;1.20;;;1.40;94.80;;;;;;5022627;28;20033;-82
2022/01/06 01:07:35;;;;;;;6.30;1.50;;;1.40;95.60;;;;;;5021098;28;20068;-82
2022/01/06 01:10:01;;;;;;;8.43;1.67;;;1.30;96.10;;;;;;5021630;28;20032;-82
2022/01/06 01:12:27;;;;;;;10.18;1.80;;;1.20;96.80;;;;;;5017363;28;20124;-83
2022/01/06 01:14:57;;;;;;;6.63;1.35;;;1.10;97.30;;;;;;5039923;28;20017;-83
2022/01/06 01:17:26;;;;;;;4.30;1.50;;;1.10;97.80;;;;;;5035872;28;20021;-83
2022/01/06 01:19:52;;;;;;;4.18;1.10;;;1.10;98.00;;;;;;5045377;28;20025;-84
2022/01/06 01:22:18;;;;;;;8.52;1.45;;;1.10;98.30;;;;;;5041059;28;20057;-84
2022/01/06 01:24:44;;;;;;;2.67;1.23;;;1.10;98.60;;;;;;5021737;28;20044;-84
2022/01/06 01:27:10;;;;;;;4.35;1.38;;;1.00;98.90;;;;;;5043493;28;20025;-84
2022/01/06 01:29:44;;;;;;;3.35;1.38;;;1.10;98.80;;;;;;5038598;28;20040;-84
2022/01/06 01:32:10;;;;;;;7.72;1.40;;;1.10;98.80;;;;;;5040437;28;20014;-83
2022/01/06 01:34:38;;;;;;;5.78;1.42;;;1.10;98.90;;;;;;5042590;28;20024;-82
2022/01/06 01:37:04;;;;;;;3.45;1.17;;;1.10;99.00;;;;;;5021589;28;20030;-83
2022/01/06 01:39:30;;;;;;;4.03;1.20;;;1.10;99.10;;;;;;5037895;28;20029;-83
2022/01/06 01:41:56;;;;;;;12.45;1.80;;;1.10;99.10;;;;;;5039708;28;20037;-83
2022/01/06 01:44:21;;;;;;;5.63;1.45;;;1.10;99.10;;;;;;5038553;28;20092;-83
2022/01/06 01:46:59;;;;;;;2.92;1.17;;;1.20;99.20;;;;;;5030026;28;20021;-83
2022/01/06 01:51:52;;;;;;;3.65;1.10;;;1.20;98.70;;;;;;5039050;28;20116;-83
2022/01/06 01:54:18;;;;;;;8.30;1.38;;;1.20;98.80;;;;;;5037962;28;20344;-83
2022/01/06 01:56:44;;;;;;;5.07;1.33;;;1.20;98.70;;;;;;5045184;28;20025;-83
2022/01/06 01:59:11;;;;;;;4.13;1.27;;;1.20;98.60;;;;;;5034966;28;20083;-82
2022/01/06 02:01:37;;;;;;;8.55;1.60;;;1.20;98.60;;;;;;5054187;28;20090;-83
2022/01/06 02:04:03;;;;;;;3.40;1.20;;;1.20;98.70;;;;;;5028738;28;20052;-83
2022/01/06 02:06:29;;;;;;;5.75;1.27;;;1.20;98.70;;;;;;5038134;28;20033;-83
2022/01/06 02:08:55;;;;;;;8.05;1.35;;;1.30;98.70;;;;;;5019598;28;20474;-83
2022/01/06 02:11:21;;;;;;;5.32;1.40;;;1.30;98.50;;;;;;5038847;28;20128;-83
2022/01/06 02:13:55;;;;;;;5.50;1.40;;;1.40;98.10;;;;;;5037400;28;20492;-83
2022/01/06 02:16:23;;;;;;;5.93;1.20;;;1.40;98.00;;;;;;5037500;28;20026;-83
2022/01/06 02:18:50;;;;;;;5.45;1.33;;;1.40;98.00;;;;;;5020167;28;20378;-83
2022/01/06 02:21:16;;;;;;;6.05;1.10;;;1.40;98.00;;;;;;5050623;28;20013;-83
2022/01/06 02:23:43;;;;;;;4.68;1.65;;;1.50;97.80;;;;;;5058485;28;20022;-83
2022/01/06 02:26:09;;;;;;;8.88;1.55;;;1.50;97.40;;;;;;5045604;28;20366;-83
2022/01/06 02:28:35;;;;;;;6.55;1.25;;;1.50;97.20;;;;;;5040656;28;20029;-83
2022/01/06 02:31:01;;;;;;;2.80;1.15;;;1.50;97.00;;;;;;5040526;28;20447;-83
2022/01/06 02:33:27;;;;;;;2.88;1.08;;;1.50;96.90;;;;;;5021908;28;20074;-83
2022/01/06 02:35:54;;;;;;;3.72;1.33;;;1.50;97.10;;;;;;5026429;28;20097;-82
2022/01/06 02:38:20;;;;;;;5.90;1.73;;;1.50;97.30;;;;;;5039436;28;20017;-82
2022/01/06 02:40:47;;;;;;;3.67;1.20;;;1.50;97.40;;;;;;5020279;28;20043;-82
2022/01/06 02:43:15;;;;;;;3.10;0.98;;;1.50;97.60;;;;;;5038528;28;20017;-81
2022/01/06 02:45:42;;;;;;;7.15;1.08;;;1.50;97.70;;;;;;5024439;28;20056;-81
2022/01/06 02:48:10;;;;;;;4.43;0.88;;;1.50;97.40;;;;;;5052402;28;20025;-82
2022/01/06 02:50:39;;;;;;;2.45;1.10;;;1.50;97.40;;;;;;5052598;28;20081;-82
2022/01/06 02:53:09;;;;;;;3.53;1.05;;;1.50;97.20;;;;;;5037164;28;20025;-82
2022/01/06 02:55:40;;;;;;;3.85;1.00;;;1.50;97.20;;;;;;5036925;28;20127;-83
2022/01/06 02:58:06;;;;;;;4.60;1.25;;;1.60;97.10;;;;;;5044605;28;20030;-83
2022/01/06 03:00:35;;;;;;;2.75;1.23;;;1.60;96.40;;;;;;5024665;28;20056;-83
2022/01/06 03:03:01;;;;;;;5.97;1.08;;;1.60;96.60;;;;;;5024192;28;20026;-83
2022/01/06 03:05:26;;;;;;;4.65;0.80;;;1.60;96.70;;;;;;5043147;28;20049;-83
2022/01/06 03:07:52;;;;;;;1.85;0.98;;;1.60;96.70;;;;;;5041852;28;20029;-83
2022/01/06 03:10:18;;;;;;;2.83;0.95;;;1.60;96.70;;;;;;5024144;28;20021;-83
2022/01/06 03:12:46;;;;;;;3.38;1.30;;;1.60;96.60;;;;;;5042045;28;20032;-83
2022/01/06 03:15:17;;;;;;;5.78;1.80;;;1.60;96.40;;;;;;5023771;28;20021;-83
2022/01/06 03:17:46;;;;;;;4.47;1.42;;;1.60;96.20;;;;;;5035170;28;20068;-84
2022/01/06 03:20:13;;;;;;;7.47;1.45;;;1.60;96.00;;;;;;5028527;28;20025;-83
2022/01/06 03:22:40;;;;;;;5.40;1.15;;;1.60;96.00;;;;;;5050895;28;20028;-83
2022/01/06 03:25:07;;;;;;;5.53;1.30;;;1.60;96.10;;;;;;5034392;28;20033;-83
2022/01/06 03:27:34;;;;;;;4.47;1.83;;;1.70;96.10;;;;;;5050561;28;20036;-83
2022/01/06 03:29:59;;;;;;;7.05;1.50;;;1.60;96.00;;;;;;5033946;28;20097;-83
2022/01/06 03:32:25;;;;;;;5.22;1.45;;;1.60;96.00;;;;;;5051599;28;20021;-83
2022/01/06 03:34:51;;;;;;;5.85;1.50;;;1.60;95.90;;;;;;5046695;28;20123;-83
2022/01/06 03:37:16;;;;;;;5.63;1.42;;;1.70;95.60;;;;;;5054824;28;20070;-82
2022/01/06 03:39:43;;;;;;;5.68;1.35;;;1.60;95.60;;;;;;5055484;28;20077;-83
2022/01/06 03:42:11;;;;;;;7.43;1.45;;;1.60;95.60;;;;;;5054376;28;20041;-83
2022/01/06 03:44:37;;;;;;;4.88;1.40;;;1.60;95.70;;;;;;5073908;22;20104;-86
2022/01/06 03:47:04;;;;;;;2.83;1.08;;;1.70;95.40;;;;;;5035982;28;20045;-84
2022/01/06 03:49:30;;;;;;;2.67;1.13;;;1.60;95.80;;;;;;5028941;28;20030;-86
2022/01/06 03:51:56;;;;;;;5.28;1.30;;;1.60;95.70;;;;;;5025712;28;20032;-85
2022/01/06 03:54:22;;;;;;;3.05;1.13;;;1.60;96.00;;;;;;5031355;28;20021;-84
2022/01/06 03:56:49;;;;;;;5.38;1.25;;;1.60;96.20;;;;;;5034999;28;20018;-87
2022/01/06 03:59:19;;;;;;;3.90;1.13;;;1.70;96.20;;;;;;5027778;28;20036;-85
2022/01/06 04:01:46;;;;;;;3.22;1.30;;;1.60;96.20;;;;;;5045067;28;20013;-86
2022/01/06 04:04:13;;;;;;;6.18;1.10;;;1.60;96.50;;;;;;5025429;28;20044;-86
2022/01/06 04:06:39;;;;;;;5.50;1.25;;;1.50;97.10;;;;;;5043287;28;20343;-87
2022/01/06 04:09:05;;;;;;;3.55;1.42;;;1.50;97.60;;;;;;5025585;28;20036;-85
2022/01/06 04:11:32;;;;;;;4.70;1.33;;;1.50;97.90;;;;;;5046135;28;20112;-86
2022/01/06 04:13:58;;;;;;;4.82;1.23;;;1.50;97.90;;;;;;5044291;28;20021;-86
2022/01/06 04:16:26;;;;;;;5.22;1.42;;;1.50;97.80;;;;;;5034981;28;20100;-85
2022/01/06 04:18:51;;;;;;;2.35;1.02;;;1.50;97.90;;;;;;5024946;28;20049;-86
2022/01/06 04:21:17;;;;;;;4.47;1.10;;;1.60;97.70;;;;;;5025947;28;20030;-84
2022/01/06 04:23:43;;;;;;;5.60;1.00;;;1.60;97.70;;;;;;5010519;28;20021;-85
2022/01/06 04:26:09;;;;;;;5.72;1.50;;;1.60;97.60;;;;;;5026363;28;20090;-86
2022/01/06 04:28:36;;;;;;;5.35;1.38;;;1.60;97.30;;;;;;5029685;28;20105;-84
2022/01/06 04:31:02;;;;;;;4.63;1.60;;;1.60;97.50;;;;;;5051959;28;20004;-84
2022/01/06 04:33:28;;;;;;;3.85;1.02;;;1.50;97.70;;;;;;5039749;28;20064;-87
2022/01/06 04:35:54;;;;;;;2.95;1.10;;;1.50;98.00;;;;;;5057449;28;20021;-88
2022/01/06 04:38:21;;;;;;;6.82;1.63;;;1.50;98.20;;;;;;5056886;28;20017;-85
2022/01/06 04:40:47;;;;;;;4.68;1.40;;;1.50;98.50;;;;;;5054829;28;20033;-84
2022/01/06 04:43:13;;;;;;;8.38;1.33;;;1.50;98.80;;;;;;5033993;28;20030;-87
2022/01/06 04:45:39;;;;;;;5.88;1.30;;;1.50;99.00;;;;;;5035028;28;20037;-86
2022/01/06 04:48:05;;;;;;;5.50;1.23;;;1.50;98.90;;;;;;5041832;28;20032;-85
2022/01/06 04:50:30;;;;;;;2.70;1.10;;;1.50;99.00;;;;;;5029402;28;20136;-86
2022/01/06 04:52:57;;;;;;;5.43;1.50;;;1.40;99.50;;;;;;5024817;28;20029;-84
2022/01/06 04:55:23;;;;;;;3.85;1.20;;;1.40;99.90;;;;;;5041936;28;20025;-86
2022/01/06 04:57:49;;;;;;;7.32;1.35;;;1.30;99.90;;;;;;5026168;28;20029;-84
2022/01/06 05:00:15;;;;;;;7.13;1.58;;;1.30;99.90;;;;;;5025091;28;20025;-85
2022/01/06 05:02:41;;;;;;;4.63;1.08;;;1.30;99.90;;;;;;5042573;28;20049;-84
2022/01/06 05:05:06;;;;;;;2.67;1.20;;;1.30;99.90;;;;;;5024577;28;20084;-86
2022/01/06 05:07:32;;;;;;;6.55;1.63;;;1.30;99.90;;;;;;5026651;28;20052;-85
2022/01/06 05:09:58;;;;;;;6.93;1.38;;;1.20;99.90;;;;;;5046388;28;20033;-86
2022/01/06 05:12:24;;;;;;;5.97;1.48;;;1.20;99.90;;;;;;5046489;28;20025;-86
2022/01/06 05:14:49;;;;;;;5.70;1.13;;;1.30;99.90;;;;;;5012232;28;20025;-85
2022/01/06 05:17:15;;;;;;;2.80;1.08;;;1.20;99.90;;;;;;5026916;28;20029;-84
2022/01/06 05:19:41;;;;;;;3.10;1.15;;;1.20;99.90;;;;;;5042478;28;20021;-85
2022/01/06 05:22:07;;;;;;;3.05;1.00;;;1.20;99.90;;;;;;5024807;28;20035;-86
2022/01/06 05:24:35;;;;;;;4.03;1.13;;;1.10;99.90;;;;;;5024827;28;20018;-87
2022/01/06 05:27:01;;;;;;;1.52;1.02;;;1.20;99.90;;;;;;5024373;28;20029;-87
2022/01/06 05:29:26;;;;;;;2.33;1.00;;;1.20;99.90;;;;;;5025741;28;20037;-85
2022/01/06 05:31:52;;;;;;;3.08;1.70;;;1.30;99.90;;;;;;5024481;28;20040;-87
2022/01/06 05:34:18;;;;;;;2.53;1.25;;;1.30;99.90;;;;;;5026121;28;20029;-84
2022/01/06 05:36:44;;;;;;;8.68;1.40;;;1.30;99.90;;;;;;5026376;28;20099;-85
2022/01/06 05:39:10;;;;;;;2.78;1.20;;;1.20;99.90;;;;;;5035659;28;20026;-87
2022/01/06 05:41:36;;;;;;;4.18;1.08;;;1.20;99.90;;;;;;5052539;28;20030;-85
2022/01/06 05:44:02;;;;;;;4.03;1.30;;;1.10;99.90;;;;;;5035459;28;20033;-89
2022/01/06 05:46:28;;;;;;;4.35;1.63;;;1.10;99.90;;;;;;5020791;28;20046;-84
2022/01/06 05:48:54;;;;;;;5.15;2.35;;;1.00;99.90;;;;;;5041960;28;20034;-85
2022/01/06 05:51:19;;;;;;;4.25;1.60;;;1.00;99.90;;;;;;5023712;28;20032;-85
2022/01/06 05:53:45;;;;;;;4.60;1.38;;;0.90;99.90;;;;;;5027947;28;20044;-85
2022/01/06 05:56:11;;;;;;;5.75;1.13;;;0.90;99.90;;;;;;5029415;28;20026;-87
2022/01/06 05:58:39;;;;;;;5.18;0.82;;;0.90;99.90;;;;;;5058997;28;20038;-87
2022/01/06 06:01:06;;;;;;;1.63;1.30;;;1.00;99.90;;;;;;5043085;28;20093;-89
2022/01/06 06:03:33;;;;;;;2.03;1.10;;;1.00;99.90;;;;;;5043257;28;20021;-89
2022/01/06 06:05:58;;;;;;;2.55;0.98;;;1.10;99.90;;;;;;5054024;28;20034;-85
2022/01/06 06:08:24;;;;;;;2.53;1.85;;;1.10;99.90;;;;;;5045645;28;20082;-86
2022/01/06 06:10:50;;;;;;;2.67;0.95;;;1.10;99.90;;;;;;5026872;28;20034;-84
2022/01/06 06:13:15;;;;;;;1.80;1.10;;;1.10;99.90;;;;;;5028370;28;20513;-84
2022/01/06 06:15:41;;;;;;;4.85;1.17;;;1.10;99.90;;;;;;5029896;28;20056;-87
2022/01/06 06:18:12;;;;;;;4.88;1.00;;;1.20;99.90;;;;;;5029855;28;20379;-85
2022/01/06 06:20:41;;;;;;;0.85;0.70;;;1.20;99.90;;;;;;5044874;28;20082;-87
2022/01/06 06:23:07;;;;;;;1.75;0.90;;;1.20;99.90;;;;;;5028583;28;20090;-84
2022/01/06 06:25:34;;;;;;;1.50;0.82;;;1.20;99.90;;;;;;5045011;28;20036;-85
2022/01/06 06:28:00;;;;;;;3.38;0.95;;;1.20;99.90;;;;;;5056027;28;20089;-86
2022/01/06 06:30:25;;;;;;;1.80;0.90;;;1.20;99.90;;;;;;5040700;28;20599;-87
2022/01/06 06:32:51;;;;;;;3.33;0.80;;;1.30;99.90;;;;;;5041182;28;20167;-86
2022/01/06 06:35:17;;;;;;;0.98;0.65;;;1.30;99.90;;;;;;5041201;28;20044;-86
2022/01/06 06:37:43;;;;;;;2.15;0.90;;;1.30;99.90;;;;;;5040862;28;20035;-85
2022/01/06 06:40:09;;;;;;;4.57;0.80;;;1.30;99.90;;;;;;5040620;28;20041;-86
2022/01/06 06:42:35;;;;;;;1.65;0.77;;;1.30;99.90;;;;;;5040576;28;20025;-86
2022/01/06 06:45:01;;;;;;;4.55;1.00;;;1.30;99.90;;;;;;5033152;28;20013;-85
2022/01/06 06:47:26;;;;;;;4.00;1.65;;;1.30;99.90;;;;;;5038917;28;20033;-88
2022/01/06 06:49:55;;;;;;;3.08;0.93;;;1.40;99.90;;;;;;5044481;28;20029;-89
2022/01/06 06:52:21;;;;;;;4.18;0.90;;;1.30;99.90;;;;;;5041330;28;20057;-85
2022/01/06 06:54:48;;;;;;;2.22;1.17;;;1.40;99.90;;;;;;5030735;28;20029;-86
2022/01/06 06:57:14;;;;;;;3.85;0.95;;;1.40;99.90;;;;;;5029750;28;20370;-84
2022/01/06 06:59:40;;;;;;;4.47;1.00;;;1.40;99.90;;;;;;5029035;28;20501;-87
2022/01/06 07:02:07;;;;;;;2.28;1.05;;;1.40;99.90;;;;;;5028885;28;20021;-86
2022/01/06 07:04:32;;;;;;;3.05;0.90;;;1.40;99.90;;;;;;5027362;28;20032;-86
2022/01/06 07:06:58;;;;;;;1.40;0.80;;;1.30;99.90;;;;;;5026533;28;20049;-86
2022/01/06 07:09:24;;;;;;;2.05;0.80;;;1.30;99.90;;;;;;5027648;28;20045;-86
2022/01/06 07:11:50;;;;;;;6.25;1.08;;;1.30;99.90;;;;;;5027557;28;20040;-85
2022/01/06 07:14:15;;;;;;;4.80;0.82;;;1.20;99.90;;;;;;5039006;28;20416;-85
2022/01/06 07:16:41;;;;;;;2.28;1.05;;;1.20;99.90;;;;;;5016937;28;20112;-84
2022/01/06 07:19:07;;;;;;;3.28;1.08;;;1.10;99.90;;;;;;5009813;28;20036;-87
2022/01/06 07:21:35;;;;;;;2.03;1.45;;;1.10;99.90;;;;;;5019160;28;20508;-85
2022/01/06 07:24:01;;;;;;;3.85;1.00;;;1.00;99.90;;;;;;5028414;28;20116;-86
2022/01/06 07:26:26;;;;;;;6.13;1.58;;;1.00;99.90;;;;;;5028627;28;20112;-85
2022/01/06 07:28:52;;;;;;;3.88;1.27;;;1.10;99.90;;;;;;5029040;28;20025;-85
2022/01/06 07:31:18;;;;;;;8.05;3.40;;;1.10;99.90;;;;;;5047776;28;20052;-83
2022/01/06 07:33:43;;;;;;;1.13;0.85;;;1.10;99.90;;;;;;5030458;28;20049;-86
2022/01/06 07:36:09;;;;;;;1.73;0.98;;;1.10;99.90;;;;;;5044276;28;20391;-85
2022/01/06 07:38:35;;;;;;;3.60;1.10;;;1.10;99.90;;;;;;5026734;28;20040;-86
2022/01/06 07:41:01;;;;;;;1.67;0.80;;;1.10;99.90;;;;;;5032645;28;20082;-84
2022/01/06 07:43:26;;;;;;;7.22;1.13;;;1.20;99.90;;;;;;5053711;28;20053;-84
2022/01/06 07:45:52;;;;;;;3.67;1.30;;;1.30;99.90;;;;;;5021733;28;20482;-84
2022/01/06 07:48:25;;;;;;;2.28;0.93;;;1.30;99.90;;;;;;5047438;28;20028;-88
2022/01/06 07:50:51;;;;;;;3.20;1.10;;;1.30;99.90;;;;;;5058271;28;20009;-88
2022/01/06 07:53:17;;;;;;;2.15;1.00;;;1.30;99.90;;;;;;5034032;28;20029;-85
2022/01/06 07:55:43;;;;;;;2.10;1.10;;;1.30;99.90;;;;;;5006760;28;20026;-85
2022/01/06 07:58:09;;;;;;;3.35;1.02;;;1.30;99.90;;;;;;5008006;28;20029;-86
2022/01/06 08:00:35;;;;;;;2.83;1.10;;;1.30;99.90;;;;;;5023954;28;20033;-86
2022/01/06 08:03:01;;;;;;;2.55;1.05;;;1.20;99.90;;;;;;5020345;28;20028;-86
2022/01/06 08:05:27;;;;;;;4.28;1.15;;;1.30;99.90;;;;;;5027408;28;20017;-86
2022/01/06 08:07:54;;;;;;;2.95;1.00;;;1.40;99.90;;;;;;5026427;28;20025;-84
2022/01/06 08:10:20;;;;;;;4.13;0.95;;;1.40;99.90;;;;;;5026666;28;20034;-86
2022/01/06 08:12:46;;;;;;;3.20;1.20;;;1.50;99.90;;;;;;5042584;28;20064;-84
2022/01/06 08:15:14;;;;;;;3.50;0.88;;;1.50;99.90;;;;;;5046424;28;20417;-85
2022/01/06 08:17:40;;;;;;;2.22;0.88;;;1.60;99.90;;;;;;5032750;28;20032;-84
2022/01/06 08:20:07;;;;;;;3.47;0.85;;;1.60;99.90;;;;;;5008240;28;20133;-84
2022/01/06 08:22:33;;;;;;;4.03;1.15;;;1.60;99.90;;;;;;5029871;28;20137;-86
2022/01/06 08:24:59;;;;;;;2.15;1.08;;;1.50;99.90;;;;;;5028790;28;20099;-86
2022/01/06 08:27:25;;;;;;;2.13;0.95;;;1.40;99.90;;;;;;5028825;28;20383;-86
2022/01/06 08:29:52;;;;;;;4.13;1.52;;;1.40;99.90;;;;;;5031416;28;20056;-88
2022/01/06 08:32:18;;;;;;;1.77;0.98;;;1.40;99.90;;;;;;5030839;28;20029;-85
2022/01/06 08:34:44;;;;;;;2.75;0.93;;;1.50;99.90;;;;;;5027986;28;20030;-86
2022/01/06 08:37:10;;;;;;;1.45;0.70;;;1.70;99.90;;;;;;5046729;28;20109;-85
2022/01/06 08:39:36;;;;;;;2.78;0.80;;;1.80;99.90;;;;;;5046927;28;20029;-86
2022/01/06 08:42:03;;;;;;;1.98;1.20;;;1.80;99.90;;;;;;5028673;28;20093;-86
2022/01/06 08:44:29;;;;;;;4.65;0.90;;;1.80;99.90;;;;;;5029073;28;20045;-87
2022/01/06 08:47:00;;;;;;;4.03;1.02;;;1.70;99.90;;;;;;5025561;28;20109;-86
2022/01/06 08:49:27;;;;;;;6.45;1.25;;;1.70;99.90;;;;;;5034702;28;20064;-88
2022/01/06 08:51:53;;;;;;;2.13;0.93;;;1.80;99.90;;;;;;5037590;28;20029;-87
2022/01/06 08:54:19;;;;;;;4.85;1.30;;;1.80;99.90;;;;;;5029770;28;20018;-88
2022/01/06 08:56:45;;;;;;;2.85;0.90;;;1.90;99.90;;;;;;5057455;28;20094;-88
2022/01/06 08:59:10;;;;;;;1.95;1.17;;;2.00;99.90;;;;;;5039757;28;20036;-89
2022/01/06 09:01:36;;;;;;;4.15;1.30;;;2.10;99.90;;;;;;5038987;28;20068;-88
2022/01/06 09:04:02;;;;;;;2.95;1.00;;;2.20;99.90;;;;;;5056784;28;20021;-89
2022/01/06 09:06:28;;;;;;;3.63;0.98;;;2.40;99.90;;;;;;5039600;28;20030;-86
2022/01/06 09:08:54;;;;;;;3.45;0.85;;;2.50;99.60;;;;;;5039434;28;20032;-88
2022/01/06 09:11:20;;;;;;;3.95;1.30;;;2.60;99.40;;;;;;5039770;28;20071;-89
2022/01/06 09:13:46;;;;;;;1.42;0.95;;;2.70;98.90;;;;;;5038986;28;20025;-88
2022/01/06 09:16:12;;;;;;;3.05;1.17;;;2.70;97.60;;;;;;5054224;28;20513;-86
2022/01/06 09:18:40;;;;;;;3.40;1.20;;;2.70;97.60;;;;;;5046617;28;20017;-85
2022/01/06 09:21:07;;;;;;;2.60;1.20;;;2.60;97.60;;;;;;5027412;28;20049;-84
2022/01/06 09:23:33;;;;;;;5.05;1.48;;;2.60;97.50;;;;;;5028854;28;20044;-85
2022/01/06 09:25:59;;;;;;;4.75;1.40;;;2.60;97.50;;;;;;5028538;28;20021;-85
2022/01/06 09:28:25;;;;;;;1.45;1.00;;;2.60;97.50;;;;;;5031820;28;20089;-84
2022/01/06 09:30:51;;;;;;;2.80;1.08;;;2.70;97.50;;;;;;5032047;28;20462;-86
2022/01/06 09:33:19;;;;;;;6.22;2.03;;;2.70;97.20;;;;;;5027547;28;20041;-85
2022/01/06 09:35:46;;;;;;;3.50;1.52;;;2.80;97.20;;;;;;5028486;28;20032;-85
2022/01/06 09:38:13;;;;;;;3.25;1.38;;;2.90;96.90;;;;;;5030070;28;20045;-87
2022/01/06 09:40:41;;;;;;;6.15;1.50;;;3.10;96.50;;;;;;5045981;28;20045;-86
2022/01/06 09:43:07;;;;;;;2.63;1.60;;;3.10;96.10;;;;;;5028526;28;20033;-85
2022/01/06 09:45:34;;;;;;;4.43;1.33;;;3.10;95.80;;;;;;4998637;23;1240155;-85
2022/01/06 09:48:01;;;;;;;2.88;1.42;;;3.10;95.80;;;;;;5031691;28;20033;-85
2022/01/06 09:50:27;;;;;;;1.75;1.20;;;2.90;95.70;;;;;;5037748;28;20033;-84
2022/01/06 09:52:53;;;;;;;5.03;1.50;;;2.80;96.20;;;;;;5038509;28;20072;-85
2022/01/06 09:55:21;;;;;;;5.78;1.63;;;2.70;96.10;;;;;;5022307;28;20458;-85
2022/01/06 09:57:59;;;;;;;4.13;1.77;;;2.60;96.80;;;;;;5016069;28;20037;-86
2022/01/06 10:00:30;;;;;;;6.05;1.42;;;2.60;96.90;;;;;;5017594;28;20021;-86
2022/01/06 10:02:58;;;;;;;7.40;2.53;;;2.70;96.60;;;;;;4999541;28;20045;-86
2022/01/06 10:05:25;;;;;;;4.32;1.85;;;2.80;96.40;;;;;;5019643;28;20041;-86
2022/01/06 10:07:54;;;;;;;7.68;2.70;;;3.00;96.50;;;;;;5018585;28;20029;-86
2022/01/06 10:10:27;;;;;;;3.08;1.60;;;3.40;95.90;;;;;;5048789;28;20089;-85
2022/01/06 10:12:57;;;;;;;3.10;1.58;;;3.70;95.70;;;;;;5038187;28;20021;-85
2022/01/06 10:15:26;;;;;;;3.15;1.48;;;4.10;94.90;;;;;;5020184;28;20010;-85
2022/01/06 10:17:53;;;;;;;4.30;1.88;;;4.20;93.30;;;;;;5032193;28;20028;-85
2022/01/06 10:20:23;;;;;;;3.42;1.60;;;4.20;93.20;;;;;;5037180;28;20478;-85
2022/01/06 10:22:53;;;;;;;4.20;1.65;;;4.10;93.20;;;;;;5019427;28;20486;-85
2022/01/06 10:25:21;;;;;;;4.80;1.40;;;3.90;93.20;;;;;;5035903;28;20091;-85
2022/01/06 10:27:49;;;;;;;7.65;1.65;;;3.80;93.10;;;;;;5036853;28;20465;-85
2022/01/06 10:30:15;;;;;;;3.45;1.30;;;3.80;93.00;;;;;;5036008;28;20028;-86
2022/01/06 10:32:41;;;;;;;2.92;1.25;;;3.90;93.90;;;;;;5037067;28;20029;-84
2022/01/06 10:35:09;;;;;;;2.78;1.70;;;4.00;93.80;;;;;;5037273;28;20508;-85
2022/01/06 10:37:43;;;;;;;2.03;1.23;;;4.00;93.30;;;;;;5019702;28;20085;-85
2022/01/06 10:40:12;;;;;;;4.43;1.90;;;4.00;93.20;;;;;;5038944;28;20040;-86
2022/01/06 10:42:41;;;;;;;5.95;1.70;;;4.10;93.10;;;;;;5039749;28;20104;-84
2022/01/06 10:45:15;;;;;;;3.20;1.58;;;4.20;93.40;;;;;;5040458;28;20081;-84
2022/01/06 10:47:50;;;;;;;3.35;1.50;;;4.30;92.70;;;;;;5036090;28;20021;-85
2022/01/06 10:50:27;;;;;;;2.58;1.67;;;4.40;91.90;;;;;;5040277;28;20039;-85
2022/01/06 10:52:57;;;;;;;2.30;1.40;;;4.20;91.70;;;;;;5039687;28;20022;-85
2022/01/06 10:55:26;;;;;;;4.05;1.30;;;4.00;92.10;;;;;;5022960;28;20033;-86
2022/01/06 10:58:20;;;;;;;3.00;1.50;;;3.90;92.90;;;;;;5043342;28;20497;-85
2022/01/06 11:00:52;;;;;;;2.53;1.52;;;3.80;92.60;;;;;;5018030;28;20044;-86
2022/01/06 11:03:25;;;;;;;;;;;3.70;92.90;;;;;;5024988;28;20033;-85
2022/01/06 11:05:56;;;;;;;3.88;1.50;;;3.50;92.80;;;;;;5041586;28;20407;-86
2022/01/06 11:08:32;;;;;;;4.38;1.85;;;3.40;93.40;;;;;;5031189;28;20121;-86
2022/01/06 11:13:37;;;;;;;5.32;2.08;;;3.20;94.20;;;;;;5025789;28;20022;-86
2022/01/06 11:16:04;;;;;;;7.90;1.65;;;3.20;94.90;;;;;;5023570;28;20021;-85
2022/01/06 11:18:30;;;;;;;4.70;1.77;;;3.40;94.30;;;;;;5040637;28;20017;-86
2022/01/06 11:21:13;;;;;;;4.43;1.65;;;3.40;94.30;;;;;;5039587;28;20025;-84
2022/01/06 11:23:40;;;;;;;4.43;1.85;;;3.40;94.30;;;;;;5041042;28;20018;-85
2022/01/06 11:26:31;;;;;;;2.85;1.60;;;3.20;94.80;;;;;;5025072;28;20030;-85
2022/01/06 11:29:00;;;;;;;4.70;1.70;;;3.10;95.70;;;;;;5039520;28;20048;-85
2022/01/06 11:31:29;;;;;;;4.63;1.90;;;3.10;96.40;;;;;;5023107;28;20432;-85
2022/01/06 11:33:56;;;;;;;5.63;1.70;;;3.20;96.70;;;;;;5024392;28;20036;-84
2022/01/06 11:36:32;;;;;;;2.10;1.63;;;3.20;97.10;;;;;;5041891;28;20028;-85
2022/01/06 11:39:00;;;;;;;4.40;1.52;;;3.30;97.20;;;;;;5041039;28;20056;-85
2022/01/06 11:41:36;;;;;;;3.47;1.58;;;3.40;96.60;;;;;;5028360;28;20045;-84
2022/01/06 11:44:05;;;;;;;3.55;2.10;;;3.40;96.20;;;;;;5029567;28;20089;-85
2022/01/06 11:46:42;;;;;;;2.60;1.65;;;3.50;96.30;;;;;;5034249;28;20033;-85
2022/01/06 11:49:07;;;;;;;3.60;2.53;;;3.50;96.10;;;;;;5041375;28;20119;-86
2022/01/06 11:51:37;;;;;;;6.82;2.15;;;3.50;95.80;;;;;;5041071;28;20053;-85
2022/01/06 11:54:19;;;;;;;5.78;1.70;;;3.50;95.80;;;;;;5023663;28;20026;-85
2022/01/06 11:56:48;;;;;;;4.63;2.03;;;3.50;95.80;;;;;;5040621;28;20052;-85
2022/01/06 11:59:14;;;;;;;3.60;1.65;;;3.40;95.80;;;;;;5039943;28;20026;-85
2022/01/06 12:01:48;;;;;;;3.38;1.70;;;3.30;96.00;;;;;;5022076;28;20090;-85
2022/01/06 12:04:19;;;;;;;3.70;2.08;;;3.20;96.20;;;;;;5039790;28;20017;-86
2022/01/06 12:06:45;;;;;;;7.22;1.65;;;3.20;95.90;;;;;;5039427;28;20026;-85
2022/01/06 12:09:23;;;;;;;4.55;1.75;;;3.20;96.10;;;;;;5022878;28;20340;-86
2022/01/06 12:12:05;;;;;;;3.40;2.35;;;3.20;96.10;;;;;;5041824;28;20030;-86
2022/01/06 12:14:31;;;;;;;3.50;2.05;;;3.30;95.60;;;;;;5041305;28;20033;-85
2022/01/06 12:17:08;;;;;;;3.47;2.60;;;3.30;95.90;;;;;;5033541;28;20112;-85
2022/01/06 12:19:35;;;;;;;6.57;1.80;;;3.30;95.90;;;;;;5040540;28;20025;-85
2022/01/06 12:22:03;;;;;;;8.38;2.10;;;3.30;95.60;;;;;;5023334;28;20057;-85
2022/01/06 12:24:29;;;;;;;5.30;2.10;;;3.30;95.40;;;;;;5042658;28;20052;-85
2022/01/06 12:26:56;;;;;;;5.15;1.75;;;3.30;95.50;;;;;;5041943;28;20029;-85
2022/01/06 12:29:25;;;;;;;2.95;1.48;;;3.30;96.00;;;;;;5041108;28;20033;-86
2022/01/06 12:32:01;;;;;;;3.95;1.75;;;3.50;95.90;;;;;;5047351;28;20045;-85
2022/01/06 12:34:27;;;;;;;3.72;1.90;;;3.70;95.80;;;;;;5050670;28;20091;-85
2022/01/06 12:36:55;;;;;;;6.53;1.52;;;3.90;94.80;;;;;;5048439;28;20498;-86
2022/01/06 12:39:22;;;;;;;4.18;1.80;;;4.00;93.80;;;;;;5041066;28;20028;-86
2022/01/06 12:41:50;;;;;;;3.83;2.00;;;3.90;93.80;;;;;;5039801;28;20029;-85
2022/01/06 12:44:18;;;;;;;4.55;1.90;;;3.90;93.80;;;;;;5039811;28;20030;-85
2022/01/06 12:46:45;;;;;;;4.47;1.85;;;3.90;93.80;;;;;;5035982;28;20116;-84
2022/01/06 12:49:11;;;;;;;3.03;1.58;;;3.90;93.50;;;;;;5019514;28;20033;-86
2022/01/06 12:51:39;;;;;;;3.70;1.95;;;3.90;93.70;;;;;;5016452;28;20033;-85
2022/01/06 12:54:15;;;;;;;2.88;1.80;;;3.70;93.20;;;;;;5039832;28;20466;-85
2022/01/06 12:56:49;;;;;;;5.43;1.50;;;3.60;93.40;;;;;;5022154;28;20025;-85
2022/01/06 12:59:15;;;;;;;3.25;1.95;;;3.60;93.70;;;;;;5038065;28;20021;-85
2022/01/06 13:01:44;;;;;;;4.82;1.48;;;3.70;93.40;;;;;;5019629;28;20517;-85
2022/01/06 13:04:11;;;;;;;4.57;1.80;;;3.80;93.00;;;;;;5046562;28;20060;-85
2022/01/06 13:06:40;;;;;;;7.90;1.83;;;4.00;93.00;;;;;;5057157;28;20069;-85
2022/01/06 13:09:23;;;;;;;6.03;2.10;;;4.00;92.60;;;;;;5056771;28;20045;-84
2022/01/06 13:11:54;;;;;;;4.07;1.92;;;4.10;92.50;;;;;;5040986;28;20026;-84
2022/01/06 13:14:29;;;;;;;2.28;1.52;;;4.20;93.00;;;;;;5030184;28;20042;-85